Time;durP1;ratioP1;P1;durP2;ratioP2;P2;SDS_P1;SDS_P2;PMS_P1;PMS_P2;Temp;Humidity;BMP_temperature;BMP_pressure;BME280_temperature;BME280_humidity;BME280_pressure;Samples;Min_cycle;Max_cycle;Signal;HPM_P1;HPM_P2
2023/09/03 00:01:43;;;;;;;2.75;2.47;;;14.00;99.90;;;;;;5023905;28;20424;-59
2023/09/03 00:04:09;;;;;;;3.67;3.28;;;13.90;99.90;;;;;;5025645;28;20025;-59
2023/09/03 00:06:35;;;;;;;6.05;3.05;;;13.90;99.90;;;;;;5027344;28;20022;-60
2023/09/03 00:09:01;;;;;;;5.05;2.90;;;14.00;99.90;;;;;;5026291;28;20034;-61
2023/09/03 00:11:27;;;;;;;4.50;2.72;;;13.90;99.90;;;;;;5026287;28;20154;-59
2023/09/03 00:13:52;;;;;;;3.38;3.17;;;13.90;99.90;;;;;;5028101;28;20116;-60
2023/09/03 00:16:18;;;;;;;3.50;2.80;;;13.90;99.90;;;;;;5024236;28;20457;-59
2023/09/03 00:18:43;;;;;;;4.78;2.88;;;13.90;99.90;;;;;;5027154;28;20030;-60
2023/09/03 00:21:09;;;;;;;3.10;2.80;;;13.90;99.90;;;;;;5023921;28;20029;-59
2023/09/03 00:23:35;;;;;;;4.70;2.50;;;13.90;99.90;;;;;;5026711;28;20406;-60
2023/09/03 00:26:01;;;;;;;4.25;3.30;;;13.90;99.90;;;;;;5031164;28;20056;-60
2023/09/03 00:28:28;;;;;;;2.90;2.70;;;13.90;99.90;;;;;;5040386;28;20068;-60
2023/09/03 00:31:01;;;;;;;4.43;2.75;;;13.80;99.90;;;;;;5026827;28;20047;-60
2023/09/03 00:33:28;;;;;;;5.75;2.80;;;13.80;99.90;;;;;;5027556;28;20580;-59
2023/09/03 00:35:53;;;;;;;3.88;2.50;;;13.70;99.90;;;;;;5023451;28;20026;-59
2023/09/03 00:38:19;;;;;;;4.15;2.30;;;13.70;99.90;;;;;;5026094;28;20038;-59
2023/09/03 00:40:45;;;;;;;3.42;2.20;;;13.60;99.90;;;;;;5028805;28;20041;-60
2023/09/03 00:43:10;;;;;;;3.60;2.10;;;13.50;99.90;;;;;;5027484;28;20026;-60
2023/09/03 00:45:36;;;;;;;3.22;1.90;;;13.40;99.90;;;;;;5029966;28;20029;-60
2023/09/03 00:48:02;;;;;;;2.38;1.92;;;13.40;99.90;;;;;;5022000;28;20075;-59
2023/09/03 00:50:29;;;;;;;2.30;2.03;;;13.30;99.90;;;;;;5026075;28;20032;-59
2023/09/03 00:52:55;;;;;;;2.13;1.60;;;13.30;99.90;;;;;;5025907;28;20088;-60
2023/09/03 00:55:22;;;;;;;2.42;2.05;;;13.30;99.90;;;;;;5022791;28;20264;-59
2023/09/03 00:57:48;;;;;;;2.92;1.77;;;13.30;99.90;;;;;;5025346;28;20052;-60
2023/09/03 01:00:16;;;;;;;2.17;1.77;;;13.30;99.90;;;;;;5027064;28;20049;-59
2023/09/03 01:02:44;;;;;;;1.67;1.52;;;13.30;99.90;;;;;;5026892;28;20029;-58
2023/09/03 01:05:10;;;;;;;3.45;1.70;;;13.30;99.90;;;;;;5024504;28;20084;-59
2023/09/03 01:07:36;;;;;;;3.28;1.27;;;13.40;99.90;;;;;;5026824;28;20520;-60
2023/09/03 01:10:02;;;;;;;1.30;1.20;;;13.40;99.90;;;;;;5025932;28;20030;-60
2023/09/03 01:12:54;;;;;;;4.65;1.73;;;13.40;99.90;;;;;;5026679;28;20485;-59
2023/09/03 01:15:31;;;;;;;1.70;1.60;;;13.40;99.90;;;;;;5026834;28;20116;-59
2023/09/03 01:18:30;;;;;;;4.80;2.78;;;13.40;99.90;;;;;;5027109;28;20037;-59
2023/09/03 01:21:02;;;;;;;3.47;2.20;;;13.40;99.90;;;;;;5019286;28;20407;-59
2023/09/03 01:23:52;;;;;;;3.42;2.17;;;13.40;99.90;;;;;;5029715;28;20048;-59
2023/09/03 01:26:44;;;;;;;2.38;2.17;;;13.40;99.90;;;;;;5031317;28;20024;-60
2023/09/03 01:29:11;;;;;;;2.38;2.17;;;13.40;99.90;;;;;;5027591;28;20026;-60
2023/09/03 01:31:39;;;;;;;3.47;2.40;;;13.40;99.90;;;;;;5030008;28;20038;-60
2023/09/03 01:34:05;;;;;;;3.90;2.63;;;13.40;99.90;;;;;;5026334;28;20037;-60
2023/09/03 01:36:33;;;;;;;3.95;2.22;;;13.30;99.90;;;;;;5026012;28;20100;-59
2023/09/03 01:39:03;;;;;;;3.60;2.75;;;13.30;99.90;;;;;;5034175;28;20384;-59
2023/09/03 01:41:38;;;;;;;3.10;2.28;;;13.30;99.90;;;;;;5032210;28;20104;-60
2023/09/03 01:44:05;;;;;;;71.25;4.53;;;13.20;99.90;;;;;;5021910;28;20037;-60
2023/09/03 01:46:40;;;;;;;12.27;2.92;;;13.20;99.90;;;;;;5029983;28;20413;-59
2023/09/03 01:49:25;;;;;;;11.02;2.35;;;13.10;99.90;;;;;;5020941;28;20355;-59
2023/09/03 01:52:11;;;;;;;2.88;1.88;;;13.10;99.90;;;;;;5029120;28;20076;-59
2023/09/03 01:54:46;;;;;;;3.28;1.50;;;13.00;99.90;;;;;;5029124;28;20047;-58
2023/09/03 01:57:32;;;;;;;1.83;1.70;;;13.00;99.90;;;;;;5028712;28;20021;-58
2023/09/03 02:00:02;;;;;;;1.60;1.50;;;13.00;99.90;;;;;;5027817;28;20083;-60
2023/09/03 02:02:29;;;;;;;2.10;1.30;;;13.00;99.90;;;;;;5045712;28;20367;-59
2023/09/03 02:04:55;;;;;;;1.90;1.80;;;13.00;99.90;;;;;;5033162;28;20044;-59
2023/09/03 02:07:21;;;;;;;2.08;1.70;;;13.00;99.90;;;;;;5033249;28;20072;-60
2023/09/03 02:09:47;;;;;;;2.00;1.80;;;13.00;99.90;;;;;;5028263;28;20099;-60
2023/09/03 02:12:12;;;;;;;2.03;1.83;;;13.00;99.90;;;;;;5019507;28;20037;-60
2023/09/03 02:14:38;;;;;;;2.58;1.70;;;13.00;99.90;;;;;;5023606;28;20147;-59
2023/09/03 02:17:04;;;;;;;5.07;4.60;;;13.00;99.90;;;;;;5023720;28;20034;-61
2023/09/03 02:19:29;;;;;;;46.83;44.17;;;13.00;99.90;;;;;;5027420;28;20052;-60
2023/09/03 02:21:55;;;;;;;263.30;16.55;;;13.00;99.90;;;;;;5025041;28;20033;-59
2023/09/03 02:24:21;;;;;;;131.82;12.98;;;13.00;99.90;;;;;;5025188;28;20037;-59
2023/09/03 02:26:47;;;;;;;1.30;1.20;;;13.00;99.90;;;;;;5025380;28;20029;-60
2023/09/03 02:29:13;;;;;;;1.33;1.23;;;13.00;99.90;;;;;;5019603;28;20409;-59
2023/09/03 02:31:39;;;;;;;1.00;1.00;;;13.00;99.90;;;;;;5022887;28;20030;-59
2023/09/03 02:34:06;;;;;;;29.08;6.18;;;13.00;99.90;;;;;;5024218;28;20084;-60
2023/09/03 02:36:34;;;;;;;94.90;86.53;;;13.00;99.90;;;;;;5027407;28;20048;-60
2023/09/03 02:39:04;;;;;;;5.75;1.00;;;13.00;99.90;;;;;;5023311;28;20382;-61
2023/09/03 02:41:31;;;;;;;1999.90;999.90;;;13.00;99.90;;;;;;5029029;28;20099;-60
2023/09/03 02:43:59;;;;;;;1999.90;999.90;;;13.00;99.90;;;;;;5025128;28;20091;-59
2023/09/03 02:46:25;;;;;;;78.78;29.95;;;13.00;99.90;;;;;;5021824;28;20030;-57
2023/09/03 02:48:52;;;;;;;572.67;30.60;;;13.00;99.90;;;;;;5028316;28;20029;-57
2023/09/03 02:51:18;;;;;;;6.65;2.17;;;12.90;99.90;;;;;;5023865;28;20524;-57
2023/09/03 02:53:45;;;;;;;451.77;182.43;;;12.90;99.90;;;;;;5029477;28;20049;-58
2023/09/03 02:56:13;;;;;;;338.67;84.22;;;12.90;99.90;;;;;;5027478;28;20537;-60
2023/09/03 02:58:39;;;;;;;70.68;64.22;;;12.90;99.90;;;;;;5031691;28;20037;-58
2023/09/03 03:01:07;;;;;;;1999.90;999.90;;;12.90;99.90;;;;;;5028125;28;20437;-58
2023/09/03 03:03:33;;;;;;;1547.55;761.28;;;12.90;99.90;;;;;;5028253;28;20033;-57
2023/09/03 03:05:58;;;;;;;245.48;103.15;;;12.80;99.90;;;;;;5025846;28;20435;-58
2023/09/03 03:08:24;;;;;;;570.30;114.53;;;12.80;99.90;;;;;;5025329;28;20592;-56
2023/09/03 03:10:52;;;;;;;1999.90;999.90;;;12.80;99.90;;;;;;5028503;28;20029;-56
2023/09/03 03:13:18;;;;;;;555.30;150.98;;;12.80;99.90;;;;;;5027244;28;20113;-58
2023/09/03 03:15:46;;;;;;;964.28;165.90;;;12.80;99.90;;;;;;5027542;28;20553;-59
2023/09/03 03:18:12;;;;;;;612.33;319.02;;;12.90;99.90;;;;;;5025873;28;20042;-59
2023/09/03 03:20:37;;;;;;;1999.90;999.90;;;12.90;99.90;;;;;;5026003;28;20037;-61
2023/09/03 03:23:03;;;;;;;59.78;5.40;;;12.90;99.90;;;;;;5020008;28;20044;-59
2023/09/03 03:25:29;;;;;;;1329.22;575.13;;;12.90;99.90;;;;;;5019899;28;20072;-58
2023/09/03 03:27:54;;;;;;;186.60;100.82;;;12.90;99.90;;;;;;5023792;28;20033;-58
2023/09/03 03:30:20;;;;;;;912.95;342.42;;;12.90;99.90;;;;;;5027250;28;20190;-59
2023/09/03 03:32:45;;;;;;;736.67;116.10;;;12.90;99.90;;;;;;5023435;28;20032;-60
2023/09/03 03:35:11;;;;;;;1999.90;999.90;;;12.80;99.90;;;;;;5027395;28;20033;-58
2023/09/03 03:37:37;;;;;;;12.05;11.75;;;12.80;99.90;;;;;;5025359;28;20032;-59
2023/09/03 03:40:06;;;;;;;222.05;188.73;;;12.80;99.90;;;;;;5026894;28;20034;-58
2023/09/03 03:42:31;;;;;;;526.03;218.18;;;12.70;99.90;;;;;;5027650;28;20451;-57
2023/09/03 03:44:57;;;;;;;0.68;0.68;;;12.70;99.90;;;;;;5028435;28;20061;-57
2023/09/03 03:47:23;;;;;;;1999.90;999.90;;;12.60;99.90;;;;;;5024432;28;20463;-57
2023/09/03 03:49:48;;;;;;;1533.68;780.45;;;12.60;99.90;;;;;;5026976;28;20112;-61
2023/09/03 03:52:14;;;;;;;62.92;58.47;;;12.50;99.90;;;;;;5028035;28;20433;-60
2023/09/03 03:54:39;;;;;;;1999.90;999.90;;;12.50;99.90;;;;;;5028962;28;20033;-58
2023/09/03 03:57:05;;;;;;;1565.18;782.75;;;12.40;99.90;;;;;;5028796;28;20108;-59
2023/09/03 03:59:31;;;;;;;12.95;12.50;;;12.40;99.90;;;;;;5026518;28;20053;-60
2023/09/03 04:01:56;;;;;;;1999.90;999.90;;;12.50;99.90;;;;;;5031256;28;20127;-58
2023/09/03 04:04:22;;;;;;;1999.90;999.90;;;12.50;99.90;;;;;;5031468;28;20504;-59
2023/09/03 04:06:47;;;;;;;264.77;110.53;;;12.60;99.90;;;;;;5028176;28;20049;-58
2023/09/03 04:09:13;;;;;;;1999.90;999.90;;;12.60;99.90;;;;;;5032596;28;20021;-59
2023/09/03 04:11:39;;;;;;;133.85;116.75;;;12.70;99.90;;;;;;5026990;28;20029;-59
2023/09/03 04:14:04;;;;;;;1514.35;757.47;;;12.70;99.90;;;;;;5021089;28;20029;-59
2023/09/03 04:16:30;;;;;;;1999.90;999.90;;;12.70;99.90;;;;;;5023295;28;20030;-59
2023/09/03 04:18:56;;;;;;;1999.90;999.90;;;12.70;99.90;;;;;;5021892;28;20501;-59
2023/09/03 04:21:21;;;;;;;1364.85;273.23;;;12.70;99.90;;;;;;5023142;28;20041;-59
2023/09/03 04:23:47;;;;;;;0.80;0.80;;;12.70;99.90;;;;;;5028401;28;20040;-58
2023/09/03 04:26:13;;;;;;;1549.50;780.63;;;12.70;99.90;;;;;;5024256;28;20030;-59
2023/09/03 04:28:40;;;;;;;61.88;4.95;;;12.70;99.90;;;;;;5030608;28;20099;-56
2023/09/03 04:31:08;;;;;;;3.85;1.33;;;12.80;99.90;;;;;;5025611;28;20541;-57
2023/09/03 04:33:38;;;;;;;1999.90;999.90;;;12.70;99.90;;;;;;5032002;28;20053;-60
2023/09/03 04:36:04;;;;;;;299.40;70.63;;;12.70;99.90;;;;;;5032282;28;20039;-58
2023/09/03 04:38:30;;;;;;;241.82;138.45;;;12.70;99.90;;;;;;5031658;28;20033;-58
2023/09/03 04:40:56;;;;;;;1999.90;999.90;;;12.70;99.90;;;;;;5017372;28;20040;-58
2023/09/03 04:43:23;;;;;;;1999.90;999.90;;;12.70;99.90;;;;;;5017679;28;20029;-59
2023/09/03 04:45:52;;;;;;;182.32;88.95;;;12.70;99.90;;;;;;5024884;28;20041;-59
2023/09/03 04:48:19;;;;;;;1999.90;999.90;;;12.60;99.90;;;;;;5031086;28;20382;-59
2023/09/03 04:50:45;;;;;;;71.55;68.30;;;12.60;99.90;;;;;;5026525;28;20013;-60
2023/09/03 04:53:14;;;;;;;69.80;66.45;;;12.60;99.90;;;;;;5025430;28;20454;-59
2023/09/03 04:55:41;;;;;;;1999.90;999.90;;;12.70;99.90;;;;;;5023983;28;20041;-60
2023/09/03 04:58:07;;;;;;;86.32;78.78;;;12.70;99.90;;;;;;5021270;28;20520;-59
2023/09/03 05:00:33;;;;;;;80.45;74.68;;;12.70;99.90;;;;;;5025548;28;20917;-60
2023/09/03 05:03:01;;;;;;;169.07;71.75;;;12.80;99.90;;;;;;5022919;28;20482;-59
2023/09/03 05:05:26;;;;;;;337.80;80.53;;;12.80;99.90;;;;;;5026218;28;20037;-60
2023/09/03 05:07:52;;;;;;;3.75;2.80;;;12.90;99.90;;;;;;5024406;28;20040;-60
2023/09/03 05:10:18;;;;;;;13.57;13.07;;;13.00;99.90;;;;;;5023973;28;20446;-58
2023/09/03 05:12:44;;;;;;;1999.90;999.90;;;13.00;99.90;;;;;;5025346;28;20389;-61
2023/09/03 05:15:13;;;;;;;38.72;37.40;;;13.10;99.90;;;;;;5028833;28;20021;-59
2023/09/03 05:17:39;;;;;;;51.97;48.72;;;13.20;99.90;;;;;;5031293;28;20086;-59
2023/09/03 05:20:06;;;;;;;1999.90;999.90;;;13.20;99.90;;;;;;5034381;28;20049;-61
2023/09/03 05:22:33;;;;;;;1999.90;999.90;;;13.20;99.90;;;;;;5023714;28;20040;-60
2023/09/03 05:24:58;;;;;;;1999.90;999.90;;;13.30;99.90;;;;;;5020765;28;20045;-60
2023/09/03 05:27:24;;;;;;;1999.90;999.90;;;13.30;99.90;;;;;;5017506;28;20029;-59
2023/09/03 05:29:50;;;;;;;203.90;97.97;;;13.30;99.90;;;;;;5021419;28;20048;-60
2023/09/03 05:32:16;;;;;;;1999.90;999.90;;;13.40;99.90;;;;;;5022181;28;20034;-60
2023/09/03 05:34:41;;;;;;;41.35;37.72;;;13.50;99.90;;;;;;5017860;28;20086;-59
2023/09/03 05:37:07;;;;;;;34.13;16.95;;;13.50;99.90;;;;;;5021144;28;20034;-60
2023/09/03 05:39:33;;;;;;;41.42;24.83;;;13.60;99.90;;;;;;5023801;28;20117;-59
2023/09/03 05:41:58;;;;;;;11.95;11.45;;;13.70;99.90;;;;;;5024498;28;20379;-59
2023/09/03 05:44:24;;;;;;;9.20;8.40;;;13.70;99.90;;;;;;5023439;28;20038;-60
2023/09/03 05:46:50;;;;;;;10.05;8.45;;;13.80;99.90;;;;;;5021804;28;20427;-60
2023/09/03 05:49:15;;;;;;;10.70;9.63;;;13.90;99.90;;;;;;5025748;28;20018;-60
2023/09/03 05:51:41;;;;;;;20.27;19.23;;;14.00;99.90;;;;;;5023220;28;20193;-60
2023/09/03 05:54:07;;;;;;;27.05;25.58;;;14.00;99.90;;;;;;5022559;28;20052;-59
2023/09/03 05:56:35;;;;;;;35.38;23.17;;;14.00;99.90;;;;;;5020853;28;20037;-59
2023/09/03 05:59:05;;;;;;;14.93;13.73;;;14.10;99.90;;;;;;5035633;28;20033;-60
2023/09/03 06:01:32;;;;;;;4.93;4.72;;;14.10;99.90;;;;;;5028620;28;20087;-60
2023/09/03 06:04:02;;;;;;;10.77;9.85;;;14.10;99.90;;;;;;5029283;28;20069;-60
2023/09/03 06:06:28;;;;;;;6.22;5.28;;;14.10;99.90;;;;;;5029155;28;20021;-61
2023/09/03 06:08:54;;;;;;;12.75;10.32;;;14.10;99.90;;;;;;5027571;28;20032;-60
2023/09/03 06:11:20;;;;;;;5.53;5.22;;;14.20;99.90;;;;;;5026495;28;20022;-59
2023/09/03 06:13:46;;;;;;;4.82;4.35;;;14.20;99.90;;;;;;5030405;28;20028;-60
2023/09/03 06:16:11;;;;;;;22.75;15.00;;;14.20;99.90;;;;;;5026655;28;20112;-60
2023/09/03 06:18:37;;;;;;;7.10;6.53;;;14.20;99.90;;;;;;5024016;28;20104;-60
2023/09/03 06:21:03;;;;;;;6.38;5.97;;;14.20;99.90;;;;;;5022786;28;20080;-59
2023/09/03 06:23:28;;;;;;;8.25;7.80;;;14.20;99.90;;;;;;5035078;28;20078;-59
2023/09/03 06:25:54;;;;;;;7.75;6.97;;;14.30;99.90;;;;;;5028659;28;20489;-61
2023/09/03 06:28:20;;;;;;;6.55;6.15;;;14.30;99.90;;;;;;5029724;28;20091;-58
2023/09/03 06:30:45;;;;;;;6.68;6.28;;;14.50;99.90;;;;;;5029880;28;20030;-60
2023/09/03 06:33:12;;;;;;;12.50;11.18;;;14.60;99.90;;;;;;5030156;28;20025;-60
2023/09/03 06:35:38;;;;;;;47.08;11.82;;;14.70;99.90;;;;;;5027338;28;20553;-61
2023/09/03 06:38:04;;;;;;;11.50;9.90;;;14.90;99.90;;;;;;5030024;28;20104;-61
2023/09/03 06:40:29;;;;;;;5.10;4.57;;;15.00;99.90;;;;;;5032553;28;20056;-61
2023/09/03 06:42:55;;;;;;;19.25;15.18;;;15.10;99.90;;;;;;5026634;28;20052;-61
2023/09/03 06:45:21;;;;;;;44.28;34.78;;;15.20;99.90;;;;;;5028737;28;20029;-60
2023/09/03 06:47:47;;;;;;;1999.90;999.90;;;15.40;99.90;;;;;;5025095;28;20005;-61
2023/09/03 06:50:13;;;;;;;1999.90;999.90;;;15.50;99.90;;;;;;5021796;28;20029;-60
2023/09/03 06:52:39;;;;;;;1999.90;999.90;;;15.70;99.90;;;;;;5024371;28;20124;-61
2023/09/03 06:55:05;;;;;;;1999.90;999.90;;;15.80;99.90;;;;;;5027344;28;20124;-60
2023/09/03 06:57:31;;;;;;;1999.90;999.90;;;15.90;99.90;;;;;;5030932;28;20026;-61
2023/09/03 06:59:57;;;;;;;1999.90;999.90;;;16.00;99.90;;;;;;5028230;28;20041;-61
2023/09/03 07:02:23;;;;;;;1999.90;999.90;;;16.10;99.90;;;;;;5029106;28;20485;-61
2023/09/03 07:04:49;;;;;;;1999.90;999.90;;;16.20;99.90;;;;;;5030926;28;20464;-61
2023/09/03 07:07:15;;;;;;;1999.90;999.90;;;16.20;99.90;;;;;;5032923;28;20028;-60
2023/09/03 07:09:41;;;;;;;1999.90;999.90;;;16.30;99.90;;;;;;5026658;28;20026;-60
2023/09/03 07:12:07;;;;;;;1999.90;999.90;;;16.40;99.90;;;;;;5023786;28;20083;-61
2023/09/03 07:14:33;;;;;;;1999.90;999.90;;;16.60;99.90;;;;;;5025266;28;20033;-61
2023/09/03 07:17:00;;;;;;;1999.90;999.90;;;16.80;99.90;;;;;;5035871;28;20267;-60
2023/09/03 07:19:26;;;;;;;1999.90;999.90;;;16.90;99.90;;;;;;5029011;28;20041;-61
2023/09/03 07:21:52;;;;;;;1999.90;999.90;;;17.10;99.90;;;;;;5025461;28;20036;-61
2023/09/03 07:24:17;;;;;;;1999.90;999.90;;;17.30;99.90;;;;;;5024809;28;20033;-62
2023/09/03 07:26:43;;;;;;;1999.90;999.90;;;17.40;99.90;;;;;;5028473;28;20025;-61
2023/09/03 07:29:09;;;;;;;1999.90;999.90;;;17.50;99.90;;;;;;5027072;28;20116;-61
2023/09/03 07:31:40;;;;;;;1999.90;999.90;;;17.60;99.90;;;;;;5028394;28;20148;-61
2023/09/03 07:34:12;;;;;;;1999.90;999.90;;;17.80;99.90;;;;;;5027599;28;20371;-61
2023/09/03 07:36:38;;;;;;;1999.90;999.90;;;17.90;99.90;;;;;;5025420;28;20167;-60
2023/09/03 07:39:05;;;;;;;1999.90;999.90;;;17.90;99.90;;;;;;5026030;28;20104;-60
2023/09/03 07:41:34;;;;;;;1999.90;999.90;;;17.90;99.90;;;;;;5025799;28;20033;-61
2023/09/03 07:44:00;;;;;;;1999.90;999.90;;;17.90;99.90;;;;;;5017567;28;20057;-61
2023/09/03 07:46:26;;;;;;;1999.90;999.90;;;18.00;99.90;;;;;;5024853;28;20518;-60
2023/09/03 07:48:52;;;;;;;1999.90;999.90;;;18.10;99.90;;;;;;5023967;28;20040;-61
2023/09/03 07:51:19;;;;;;;1999.90;999.90;;;18.20;99.90;;;;;;5023876;28;20009;-60
2023/09/03 07:53:46;;;;;;;1999.90;999.90;;;18.20;99.90;;;;;;5028913;28;20025;-60
2023/09/03 07:56:12;;;;;;;1999.90;999.90;;;18.40;99.90;;;;;;5022150;28;20091;-61
2023/09/03 07:58:38;;;;;;;1999.90;999.90;;;18.50;99.90;;;;;;5024558;28;20030;-61
2023/09/03 08:01:04;;;;;;;1999.90;999.90;;;18.60;99.90;;;;;;5025773;28;20048;-60
2023/09/03 08:03:33;;;;;;;1999.90;999.90;;;18.70;99.90;;;;;;5025882;28;20038;-62
2023/09/03 08:06:00;;;;;;;147.88;134.93;;;18.70;99.90;;;;;;5029874;28;20026;-61
2023/09/03 08:08:26;;;;;;;96.93;83.80;;;18.70;99.90;;;;;;5025058;28;20068;-60
2023/09/03 08:10:52;;;;;;;203.30;101.05;;;18.80;99.90;;;;;;5030462;28;20033;-60
2023/09/03 08:13:18;;;;;;;1999.90;999.90;;;18.90;99.90;;;;;;5028248;28;20028;-62
2023/09/03 08:15:43;;;;;;;422.98;86.70;;;19.00;99.90;;;;;;5024586;28;20034;-61
2023/09/03 08:18:09;;;;;;;106.82;15.85;;;19.10;99.90;;;;;;5021789;28;20052;-62
2023/09/03 08:20:34;;;;;;;315.38;32.70;;;19.20;99.90;;;;;;5028486;28;20516;-61
2023/09/03 08:23:00;;;;;;;275.90;116.35;;;19.30;99.90;;;;;;5026485;28;20041;-61
2023/09/03 08:25:28;;;;;;;1060.97;172.27;;;19.40;99.90;;;;;;5026073;28;20049;-61
2023/09/03 08:27:53;;;;;;;594.92;96.05;;;19.50;99.90;;;;;;5024795;28;20069;-60
2023/09/03 08:30:19;;;;;;;1999.90;999.90;;;19.60;99.90;;;;;;5024649;28;20061;-59
2023/09/03 08:32:45;;;;;;;1999.90;999.90;;;19.60;99.90;;;;;;5022733;28;20026;-61
2023/09/03 08:35:10;;;;;;;100.93;95.18;;;19.70;99.90;;;;;;5025308;28;20021;-60
2023/09/03 08:37:36;;;;;;;368.25;151.77;;;19.70;99.90;;;;;;5022772;28;20053;-62
2023/09/03 08:40:02;;;;;;;89.78;82.43;;;19.80;99.90;;;;;;5024452;28;20034;-61
2023/09/03 08:42:29;;;;;;;98.57;58.50;;;19.80;99.90;;;;;;5025496;28;20029;-61
2023/09/03 08:45:03;;;;;;;1999.90;999.90;;;20.00;99.90;;;;;;5023627;28;20038;-61
2023/09/03 08:47:29;;;;;;;1999.90;999.90;;;20.20;99.90;;;;;;5019554;28;20346;-61
2023/09/03 08:49:54;;;;;;;1999.90;999.90;;;20.30;99.90;;;;;;5020459;28;20060;-61
2023/09/03 08:52:21;;;;;;;61.90;59.55;;;20.40;99.90;;;;;;5017981;28;20025;-62
2023/09/03 08:54:47;;;;;;;11.73;11.13;;;20.50;99.90;;;;;;5023877;28;20032;-61
2023/09/03 08:57:13;;;;;;;47.47;19.27;;;20.70;99.90;;;;;;5023449;28;20108;-61
2023/09/03 08:59:38;;;;;;;15.75;14.70;;;20.80;99.90;;;;;;5025211;28;20040;-62
2023/09/03 09:02:08;;;;;;;12.45;11.00;;;21.00;99.90;;;;;;5023892;28;20030;-61
2023/09/03 09:04:34;;;;;;;32.75;21.95;;;21.10;99.90;;;;;;5023508;28;20030;-61
2023/09/03 09:07:00;;;;;;;9.63;8.95;;;21.20;99.90;;;;;;5024836;28;20087;-61
2023/09/03 09:09:29;;;;;;;4.75;4.32;;;21.30;99.90;;;;;;5024399;28;20037;-61
2023/09/03 09:12:21;;;;;;;60.10;12.98;;;21.40;99.90;;;;;;5025318;28;20029;-60
2023/09/03 09:14:55;;;;;;;5.25;4.85;;;21.60;99.90;;;;;;5019853;28;20038;-60
2023/09/03 09:17:21;;;;;;;6.90;6.50;;;21.60;99.90;;;;;;5019784;28;20045;-61
2023/09/03 09:19:46;;;;;;;7.60;7.20;;;21.70;99.90;;;;;;5025014;28;20033;-60
2023/09/03 09:22:12;;;;;;;55.58;43.67;;;21.70;99.90;;;;;;5022623;28;20041;-62
2023/09/03 09:24:45;;;;;;;39.83;38.22;;;21.70;99.90;;;;;;5023301;28;20309;-61
2023/09/03 09:27:19;;;;;;;39.17;37.47;;;21.80;99.90;;;;;;5024245;28;20017;-61
2023/09/03 09:29:46;;;;;;;1999.90;999.90;;;21.90;99.90;;;;;;5041615;28;20045;-61
2023/09/03 09:32:22;;;;;;;1999.90;999.90;;;22.20;99.90;;;;;;5026041;28;20037;-61
2023/09/03 09:34:48;;;;;;;1999.90;999.90;;;22.60;99.90;;;;;;5030572;28;20033;-62
2023/09/03 09:37:14;;;;;;;6.10;2.55;;;22.80;99.90;;;;;;5031015;28;20092;-61
2023/09/03 09:39:48;;;;;;;1999.90;999.90;;;23.00;99.90;;;;;;5026702;28;20049;-62
2023/09/03 09:42:18;;;;;;;263.83;48.03;;;23.30;99.90;;;;;;5028065;28;20551;-60
2023/09/03 09:44:53;;;;;;;11.00;10.50;;;23.30;99.90;;;;;;5031942;28;20045;-60
2023/09/03 09:47:21;;;;;;;1574.28;779.42;;;23.20;99.90;;;;;;5031281;28;20041;-61
2023/09/03 09:49:47;;;;;;;2.50;2.30;;;22.90;99.90;;;;;;5027541;28;20571;-60
2023/09/03 09:52:14;;;;;;;3.33;2.40;;;22.60;99.90;;;;;;5028019;28;20075;-59
2023/09/03 09:54:40;;;;;;;2.15;1.95;;;22.50;99.90;;;;;;5026496;28;20826;-59
2023/09/03 09:57:16;;;;;;;2.75;2.17;;;22.60;99.90;;;;;;5029078;28;20025;-61
2023/09/03 09:59:43;;;;;;;1999.90;999.90;;;22.60;99.90;;;;;;5028734;28;20041;-59
2023/09/03 10:02:13;;;;;;;1999.90;999.90;;;22.50;99.90;;;;;;5026512;28;20033;-60
2023/09/03 10:04:43;;;;;;;332.38;102.72;;;22.70;99.90;;;;;;5034424;28;20065;-61
2023/09/03 10:07:10;;;;;;;213.65;22.45;;;22.70;99.90;;;;;;5025357;28;20112;-59
2023/09/03 10:09:37;;;;;;;1999.90;999.90;;;22.70;99.90;;;;;;5032089;28;20448;-61
2023/09/03 10:12:07;;;;;;;1026.32;524.78;;;22.80;99.90;;;;;;5033053;28;20108;-59
2023/09/03 10:14:33;;;;;;;120.05;104.63;;;23.10;99.90;;;;;;5034585;28;20406;-59
2023/09/03 10:17:04;;;;;;;7.47;7.07;;;23.40;99.90;;;;;;5033369;28;20175;-61
2023/09/03 10:19:52;;;;;;;4.20;3.80;;;23.70;99.90;;;;;;5022165;28;20589;-61
2023/09/03 10:22:20;;;;;;;1999.90;999.90;;;23.70;99.90;;;;;;5023774;28;20532;-59
2023/09/03 10:25:02;;;;;;;1999.90;999.90;;;23.50;99.90;;;;;;5028497;28;20029;-59
2023/09/03 10:27:31;;;;;;;1999.90;999.90;;;23.20;99.90;;;;;;5027214;28;20029;-59
2023/09/03 10:30:01;;;;;;;1999.90;999.90;;;22.90;99.90;;;;;;5029599;28;20033;-59
2023/09/03 10:32:28;;;;;;;1999.90;999.90;;;22.70;99.90;;;;;;5028635;28;20051;-59
2023/09/03 10:34:53;;;;;;;565.28;193.18;;;22.60;99.90;;;;;;5029206;28;20029;-61
2023/09/03 10:37:20;;;;;;;44.25;4.05;;;22.60;99.90;;;;;;5027548;28;20446;-59
2023/09/03 10:39:46;;;;;;;45.72;3.70;;;22.80;99.90;;;;;;5028766;28;20083;-59
2023/09/03 10:42:17;;;;;;;3.78;2.30;;;23.20;99.90;;;;;;5028170;28;20411;-59
2023/09/03 10:44:57;;;;;;;5.72;2.17;;;23.40;99.90;;;;;;5029273;28;20464;-59
2023/09/03 10:47:24;;;;;;;89.53;6.25;;;23.70;99.90;;;;;;5029142;28;20056;-60
2023/09/03 10:49:54;;;;;;;3.15;2.67;;;23.80;99.90;;;;;;5030862;28;20026;-59
2023/09/03 10:52:30;;;;;;;2.60;2.40;;;23.90;99.90;;;;;;5029059;28;20057;-59
2023/09/03 10:55:21;;;;;;;74.07;7.22;;;23.80;99.90;;;;;;5028706;28;20097;-60
2023/09/03 10:58:06;;;;;;;;;;;23.80;99.90;;;;;;5028105;28;20269;-60
2023/09/03 11:00:31;;;;;;;1999.90;999.90;;;23.80;99.90;;;;;;5029413;28;20427;-60
2023/09/03 11:03:17;;;;;;;1999.90;999.90;;;23.90;99.90;;;;;;5026639;28;20033;-59
2023/09/03 11:06:17;;;;;;;1999.90;999.90;;;23.90;99.90;;;;;;5025844;28;20044;-64
2023/09/03 11:08:42;;;;;;;1999.90;999.90;;;24.10;99.90;;;;;;5024699;28;20151;-58
2023/09/03 11:11:11;;;;;;;1999.90;999.90;;;24.10;99.90;;;;;;5025984;28;20620;-60
2023/09/03 11:13:37;;;;;;;1999.90;999.90;;;24.10;99.90;;;;;;5036292;28;20033;-58
2023/09/03 11:16:03;;;;;;;1999.90;999.90;;;24.10;99.90;;;;;;5022110;28;20069;-60
2023/09/03 11:18:30;;;;;;;1999.90;999.90;;;24.20;99.90;;;;;;5023087;28;20028;-60
2023/09/03 11:20:56;;;;;;;1999.90;999.90;;;24.20;99.90;;;;;;5021593;28;20033;-60
2023/09/03 11:23:22;;;;;;;1999.90;999.90;;;24.10;99.90;;;;;;5024294;28;20037;-59
2023/09/03 11:25:48;;;;;;;1999.90;999.90;;;24.10;99.90;;;;;;5025926;28;20449;-60
2023/09/03 11:28:14;;;;;;;1999.90;999.90;;;24.10;99.90;;;;;;5024510;28;20498;-57
2023/09/03 11:30:45;;;;;;;1999.90;999.90;;;24.00;99.90;;;;;;5032663;28;20038;-59
2023/09/03 11:33:27;;;;;;;;;;;23.80;99.90;;;;;;5031135;28;20034;-60
2023/09/03 11:35:56;;;;;;;2.63;2.42;;;23.70;99.90;;;;;;5026613;28;20392;-60
2023/09/03 11:38:26;;;;;;;2.70;1.40;;;23.70;99.90;;;;;;5025171;28;20036;-60
2023/09/03 11:40:55;;;;;;;1.58;1.40;;;23.70;99.90;;;;;;5025023;28;20029;-59
2023/09/03 11:43:21;;;;;;;1.30;1.20;;;23.80;99.90;;;;;;5020218;28;20034;-62
2023/09/03 11:45:47;;;;;;;1.38;1.27;;;23.90;99.90;;;;;;5019656;28;20036;-61
2023/09/03 11:48:13;;;;;;;1.65;1.40;;;24.10;99.90;;;;;;5023140;28;20566;-59
2023/09/03 11:50:39;;;;;;;1.40;1.30;;;24.30;99.90;;;;;;5025576;28;20026;-58
2023/09/03 11:53:05;;;;;;;2.33;1.30;;;24.30;99.90;;;;;;5022984;28;20025;-58
2023/09/03 11:55:37;;;;;;;1.83;1.58;;;24.20;99.90;;;;;;5020748;28;20064;-60
2023/09/03 11:58:06;;;;;;;1.45;1.35;;;24.00;99.90;;;;;;5021488;28;20497;-61
2023/09/03 12:00:32;;;;;;;18.67;2.38;;;23.90;99.90;;;;;;5028077;28;20068;-59
2023/09/03 12:02:59;;;;;;;1.70;1.23;;;23.80;99.90;;;;;;5023615;28;20033;-61
2023/09/03 12:05:26;;;;;;;1.50;1.40;;;23.70;99.90;;;;;;5025859;28;20065;-59
2023/09/03 12:07:52;;;;;;;1.55;1.45;;;23.60;99.90;;;;;;5026355;28;20025;-61
2023/09/03 12:10:18;;;;;;;1.83;1.15;;;23.60;99.90;;;;;;5026403;28;20029;-60
2023/09/03 12:12:45;;;;;;;1.60;1.50;;;23.50;99.90;;;;;;5027314;28;20490;-59
2023/09/03 12:15:21;;;;;;;2.40;1.50;;;23.50;99.90;;;;;;5030315;28;20037;-60
2023/09/03 12:17:47;;;;;;;0.80;0.80;;;23.40;99.90;;;;;;5023583;28;20033;-58
2023/09/03 12:20:32;;;;;;;0.80;0.80;;;23.40;99.90;;;;;;5026330;28;20042;-60
2023/09/03 12:23:10;;;;;;;12.68;1.50;;;23.50;99.90;;;;;;5024877;28;20035;-59
2023/09/03 12:25:37;;;;;;;0.88;0.88;;;23.60;99.90;;;;;;5026071;28;20092;-60
2023/09/03 12:28:04;;;;;;;1.20;1.10;;;23.70;99.90;;;;;;5028150;28;20037;-61